Terminal Aerodrome Forecast
Issued by NWS Charleston, WV

Current Version | Previous Version | Graphics & Text | Print | Product List | Glossary On
Versions: 1 2 3 4 5 6 7 8 9 10 11 12 13 14 15 16 17 18 19 20 21 22 23 24 25 26
612
FTUS41 KRLX 210826 AAB
TAFPKB
TAF AMD
KPKB 210826Z 2108/2206 12005KT 4SM BR SCT003 OVC030
      TEMPO 2109/2111 2SM BR BKN003
     FM211100 VRB03KT 5SM BR OVC012
     FM211400 24005KT 6SM SHRA BR OVC020
     FM212000 35004KT 5SM BR OVC020=

USA.gov is the U.S. government's official web portal to all federal, state and local government web resources and services.